sensor_id;sensor_type;location;lat;lon;timestamp;temperature;humidity
62575;DHT22;76945;45.630;11.704;2024-03-06T00:00:55;8.80;67.90
62575;DHT22;76945;45.630;11.704;2024-03-06T00:03:20;9.00;69.10
62575;DHT22;76945;45.630;11.704;2024-03-06T00:05:47;9.10;68.50
62575;DHT22;76945;45.630;11.704;2024-03-06T00:08:13;9.00;67.40
62575;DHT22;76945;45.630;11.704;2024-03-06T00:10:38;9.10;67.60
62575;DHT22;76945;45.630;11.704;2024-03-06T00:13:05;9.00;67.20
62575;DHT22;76945;45.630;11.704;2024-03-06T00:15:31;8.80;67.20
62575;DHT22;76945;45.630;11.704;2024-03-06T00:17:56;8.80;66.70
62575;DHT22;76945;45.630;11.704;2024-03-06T00:20:24;9.10;67.70
62575;DHT22;76945;45.630;11.704;2024-03-06T00:22:49;8.90;66.20
62575;DHT22;76945;45.630;11.704;2024-03-06T00:25:15;9.10;66.30
62575;DHT22;76945;45.630;11.704;2024-03-06T00:27:41;9.10;64.90
62575;DHT22;76945;45.630;11.704;2024-03-06T00:30:07;9.30;65.70
62575;DHT22;76945;45.630;11.704;2024-03-06T00:32:32;9.30;65.30
62575;DHT22;76945;45.630;11.704;2024-03-06T00:34:58;9.30;64.80
62575;DHT22;76945;45.630;11.704;2024-03-06T00:37:24;9.20;64.00
62575;DHT22;76945;45.630;11.704;2024-03-06T00:39:49;8.90;65.10
62575;DHT22;76945;45.630;11.704;2024-03-06T00:42:15;8.90;64.60
62575;DHT22;76945;45.630;11.704;2024-03-06T00:44:41;8.80;65.20
62575;DHT22;76945;45.630;11.704;2024-03-06T00:47:07;8.80;64.90
62575;DHT22;76945;45.630;11.704;2024-03-06T00:49:32;8.90;64.80
62575;DHT22;76945;45.630;11.704;2024-03-06T00:51:58;8.70;64.40
62575;DHT22;76945;45.630;11.704;2024-03-06T00:54:23;8.60;64.40
62575;DHT22;76945;45.630;11.704;2024-03-06T00:56:49;8.70;64.60
62575;DHT22;76945;45.630;11.704;2024-03-06T00:59:15;8.80;65.10
62575;DHT22;76945;45.630;11.704;2024-03-06T01:01:40;8.50;65.10
62575;DHT22;76945;45.630;11.704;2024-03-06T01:04:06;8.70;64.50
62575;DHT22;76945;45.630;11.704;2024-03-06T01:06:32;8.70;64.60
62575;DHT22;76945;45.630;11.704;2024-03-06T01:08:58;8.60;64.30
62575;DHT22;76945;45.630;11.704;2024-03-06T01:11:24;8.70;64.20
62575;DHT22;76945;45.630;11.704;2024-03-06T01:13:52;8.80;64.20
62575;DHT22;76945;45.630;11.704;2024-03-06T01:16:17;9.00;63.80
62575;DHT22;76945;45.630;11.704;2024-03-06T01:18:43;9.10;63.60
62575;DHT22;76945;45.630;11.704;2024-03-06T01:21:09;8.90;62.50
62575;DHT22;76945;45.630;11.704;2024-03-06T01:23:35;8.90;63.00
62575;DHT22;76945;45.630;11.704;2024-03-06T01:26:00;8.90;63.00
62575;DHT22;76945;45.630;11.704;2024-03-06T01:28:26;8.90;63.30
62575;DHT22;76945;45.630;11.704;2024-03-06T01:30:51;9.00;62.70
62575;DHT22;76945;45.630;11.704;2024-03-06T01:33:17;9.20;62.60
62575;DHT22;76945;45.630;11.704;2024-03-06T01:35:43;9.30;61.90
62575;DHT22;76945;45.630;11.704;2024-03-06T01:38:08;9.30;61.90
62575;DHT22;76945;45.630;11.704;2024-03-06T01:40:35;9.10;61.20
62575;DHT22;76945;45.630;11.704;2024-03-06T01:43:01;9.10;61.70
62575;DHT22;76945;45.630;11.704;2024-03-06T01:45:27;9.10;61.70
62575;DHT22;76945;45.630;11.704;2024-03-06T01:47:53;9.20;61.60
62575;DHT22;76945;45.630;11.704;2024-03-06T01:50:19;9.10;61.80
62575;DHT22;76945;45.630;11.704;2024-03-06T01:52:45;9.30;61.30
62575;DHT22;76945;45.630;11.704;2024-03-06T01:55:12;9.30;61.10
62575;DHT22;76945;45.630;11.704;2024-03-06T01:57:39;9.30;61.20
62575;DHT22;76945;45.630;11.704;2024-03-06T02:00:06;9.10;60.80
62575;DHT22;76945;45.630;11.704;2024-03-06T02:02:40;9.00;61.60
62575;DHT22;76945;45.630;11.704;2024-03-06T02:05:05;8.70;62.10
62575;DHT22;76945;45.630;11.704;2024-03-06T02:07:32;8.60;62.20
62575;DHT22;76945;45.630;11.704;2024-03-06T02:09:58;8.80;62.20
62575;DHT22;76945;45.630;11.704;2024-03-06T02:12:24;8.90;61.70
62575;DHT22;76945;45.630;11.704;2024-03-06T02:14:50;8.90;61.50
62575;DHT22;76945;45.630;11.704;2024-03-06T02:17:15;8.70;61.80
62575;DHT22;76945;45.630;11.704;2024-03-06T02:19:42;8.80;61.90
62575;DHT22;76945;45.630;11.704;2024-03-06T02:22:09;9.00;61.70
62575;DHT22;76945;45.630;11.704;2024-03-06T02:24:36;8.90;61.30
62575;DHT22;76945;45.630;11.704;2024-03-06T02:27:02;8.90;61.60
62575;DHT22;76945;45.630;11.704;2024-03-06T02:29:29;8.70;61.70
62575;DHT22;76945;45.630;11.704;2024-03-06T02:31:55;8.80;62.10
62575;DHT22;76945;45.630;11.704;2024-03-06T02:34:20;8.90;61.60
62575;DHT22;76945;45.630;11.704;2024-03-06T02:36:46;8.90;61.80
62575;DHT22;76945;45.630;11.704;2024-03-06T02:39:12;8.70;62.20
62575;DHT22;76945;45.630;11.704;2024-03-06T02:41:37;8.40;62.50
62575;DHT22;76945;45.630;11.704;2024-03-06T02:44:03;8.50;62.80
62575;DHT22;76945;45.630;11.704;2024-03-06T02:46:29;8.60;62.60
62575;DHT22;76945;45.630;11.704;2024-03-06T02:48:55;8.60;62.40
62575;DHT22;76945;45.630;11.704;2024-03-06T02:51:21;8.70;62.00
62575;DHT22;76945;45.630;11.704;2024-03-06T02:53:47;8.70;62.30
62575;DHT22;76945;45.630;11.704;2024-03-06T02:56:20;8.80;61.90
62575;DHT22;76945;45.630;11.704;2024-03-06T02:58:46;8.90;61.70
62575;DHT22;76945;45.630;11.704;2024-03-06T03:01:13;9.00;61.80
62575;DHT22;76945;45.630;11.704;2024-03-06T03:03:42;8.90;61.40
62575;DHT22;76945;45.630;11.704;2024-03-06T03:06:08;8.80;61.30
62575;DHT22;76945;45.630;11.704;2024-03-06T03:08:34;8.80;61.70
62575;DHT22;76945;45.630;11.704;2024-03-06T03:10:59;8.60;61.70
62575;DHT22;76945;45.630;11.704;2024-03-06T03:13:25;8.70;62.00
62575;DHT22;76945;45.630;11.704;2024-03-06T03:15:51;8.70;61.60
62575;DHT22;76945;45.630;11.704;2024-03-06T03:18:16;8.70;61.50
62575;DHT22;76945;45.630;11.704;2024-03-06T03:20:42;8.70;61.60
62575;DHT22;76945;45.630;11.704;2024-03-06T03:23:08;8.60;62.10
62575;DHT22;76945;45.630;11.704;2024-03-06T03:25:37;8.80;61.60
62575;DHT22;76945;45.630;11.704;2024-03-06T03:28:03;8.90;61.50
62575;DHT22;76945;45.630;11.704;2024-03-06T03:30:30;8.80;61.30
62575;DHT22;76945;45.630;11.704;2024-03-06T03:32:57;8.60;62.10
62575;DHT22;76945;45.630;11.704;2024-03-06T03:35:23;8.70;61.80
62575;DHT22;76945;45.630;11.704;2024-03-06T03:37:53;8.80;61.60
62575;DHT22;76945;45.630;11.704;2024-03-06T03:40:19;8.70;61.50
62575;DHT22;76945;45.630;11.704;2024-03-06T03:42:45;8.80;61.10
62575;DHT22;76945;45.630;11.704;2024-03-06T03:45:10;8.70;61.00
62575;DHT22;76945;45.630;11.704;2024-03-06T03:47:36;8.70;61.40
62575;DHT22;76945;45.630;11.704;2024-03-06T03:50:02;8.70;61.50
62575;DHT22;76945;45.630;11.704;2024-03-06T03:52:29;8.70;61.40
62575;DHT22;76945;45.630;11.704;2024-03-06T03:54:55;8.80;61.40
62575;DHT22;76945;45.630;11.704;2024-03-06T03:57:21;8.80;61.00
62575;DHT22;76945;45.630;11.704;2024-03-06T03:59:46;8.80;61.10
62575;DHT22;76945;45.630;11.704;2024-03-06T04:02:12;8.80;61.20
62575;DHT22;76945;45.630;11.704;2024-03-06T04:04:38;8.70;61.00
62575;DHT22;76945;45.630;11.704;2024-03-06T04:07:03;8.60;61.20
62575;DHT22;76945;45.630;11.704;2024-03-06T04:09:32;8.30;62.00
62575;DHT22;76945;45.630;11.704;2024-03-06T04:12:00;8.40;62.10
62575;DHT22;76945;45.630;11.704;2024-03-06T04:14:26;8.20;62.20
62575;DHT22;76945;45.630;11.704;2024-03-06T04:16:52;8.30;62.40
62575;DHT22;76945;45.630;11.704;2024-03-06T04:19:17;8.40;62.20
62575;DHT22;76945;45.630;11.704;2024-03-06T04:21:44;8.50;61.80
62575;DHT22;76945;45.630;11.704;2024-03-06T04:24:10;8.40;62.00
62575;DHT22;76945;45.630;11.704;2024-03-06T04:26:36;8.30;62.30
62575;DHT22;76945;45.630;11.704;2024-03-06T04:29:02;8.50;61.80
62575;DHT22;76945;45.630;11.704;2024-03-06T04:31:28;8.60;61.50
62575;DHT22;76945;45.630;11.704;2024-03-06T04:33:54;8.60;61.50
62575;DHT22;76945;45.630;11.704;2024-03-06T04:36:20;8.40;61.70
62575;DHT22;76945;45.630;11.704;2024-03-06T04:38:45;8.60;61.40
62575;DHT22;76945;45.630;11.704;2024-03-06T04:41:11;8.40;61.90
62575;DHT22;76945;45.630;11.704;2024-03-06T04:43:37;8.40;62.00
62575;DHT22;76945;45.630;11.704;2024-03-06T04:46:03;8.40;61.90
62575;DHT22;76945;45.630;11.704;2024-03-06T04:48:29;8.60;61.70
62575;DHT22;76945;45.630;11.704;2024-03-06T04:50:55;8.20;62.30
62575;DHT22;76945;45.630;11.704;2024-03-06T04:53:20;8.40;61.90
62575;DHT22;76945;45.630;11.704;2024-03-06T04:55:46;8.60;61.40
62575;DHT22;76945;45.630;11.704;2024-03-06T04:58:12;8.60;61.50
62575;DHT22;76945;45.630;11.704;2024-03-06T05:00:38;8.60;61.90
62575;DHT22;76945;45.630;11.704;2024-03-06T05:03:04;8.60;61.80
62575;DHT22;76945;45.630;11.704;2024-03-06T05:05:30;8.40;62.60
62575;DHT22;76945;45.630;11.704;2024-03-06T05:07:57;8.40;62.80
62575;DHT22;76945;45.630;11.704;2024-03-06T05:10:23;8.40;63.10
62575;DHT22;76945;45.630;11.704;2024-03-06T05:12:49;8.30;63.40
62575;DHT22;76945;45.630;11.704;2024-03-06T05:15:16;8.60;62.60
62575;DHT22;76945;45.630;11.704;2024-03-06T05:17:41;8.60;62.70
62575;DHT22;76945;45.630;11.704;2024-03-06T05:20:07;8.80;62.30
62575;DHT22;76945;45.630;11.704;2024-03-06T05:22:33;8.90;62.40
62575;DHT22;76945;45.630;11.704;2024-03-06T05:24:59;9.00;62.20
62575;DHT22;76945;45.630;11.704;2024-03-06T05:27:25;9.10;61.60
62575;DHT22;76945;45.630;11.704;2024-03-06T05:29:51;8.80;63.20
62575;DHT22;76945;45.630;11.704;2024-03-06T05:32:17;8.90;63.30
62575;DHT22;76945;45.630;11.704;2024-03-06T05:34:43;8.70;63.80
62575;DHT22;76945;45.630;11.704;2024-03-06T05:37:10;8.90;63.00
62575;DHT22;76945;45.630;11.704;2024-03-06T05:39:35;8.90;63.00
62575;DHT22;76945;45.630;11.704;2024-03-06T05:42:02;9.00;62.90
62575;DHT22;76945;45.630;11.704;2024-03-06T05:44:29;8.60;64.20
62575;DHT22;76945;45.630;11.704;2024-03-06T05:46:55;8.60;64.10
62575;DHT22;76945;45.630;11.704;2024-03-06T05:49:21;8.90;63.40
62575;DHT22;76945;45.630;11.704;2024-03-06T05:51:46;8.90;62.80
62575;DHT22;76945;45.630;11.704;2024-03-06T05:54:12;8.70;63.60
62575;DHT22;76945;45.630;11.704;2024-03-06T05:56:38;8.70;63.70
62575;DHT22;76945;45.630;11.704;2024-03-06T05:59:04;8.80;63.60
62575;DHT22;76945;45.630;11.704;2024-03-06T06:01:33;8.50;64.30
62575;DHT22;76945;45.630;11.704;2024-03-06T06:04:00;8.30;65.40
62575;DHT22;76945;45.630;11.704;2024-03-06T06:06:26;8.20;65.60
62575;DHT22;76945;45.630;11.704;2024-03-06T06:08:52;8.30;65.80
62575;DHT22;76945;45.630;11.704;2024-03-06T06:11:17;8.70;64.30
62575;DHT22;76945;45.630;11.704;2024-03-06T06:13:43;8.60;64.70
62575;DHT22;76945;45.630;11.704;2024-03-06T06:16:09;8.60;65.10
62575;DHT22;76945;45.630;11.704;2024-03-06T06:18:34;8.80;64.50
62575;DHT22;76945;45.630;11.704;2024-03-06T06:21:00;9.00;63.50
62575;DHT22;76945;45.630;11.704;2024-03-06T06:23:26;8.90;64.00
62575;DHT22;76945;45.630;11.704;2024-03-06T06:25:52;9.10;63.50
62575;DHT22;76945;45.630;11.704;2024-03-06T06:28:17;9.20;63.40
62575;DHT22;76945;45.630;11.704;2024-03-06T06:30:43;9.30;62.90
62575;DHT22;76945;45.630;11.704;2024-03-06T06:33:09;9.40;62.50
62575;DHT22;76945;45.630;11.704;2024-03-06T06:35:35;9.50;62.20
62575;DHT22;76945;45.630;11.704;2024-03-06T06:38:01;9.40;62.60
62575;DHT22;76945;45.630;11.704;2024-03-06T06:40:27;9.30;63.20
62575;DHT22;76945;45.630;11.704;2024-03-06T06:42:54;9.20;63.30
62575;DHT22;76945;45.630;11.704;2024-03-06T06:45:20;9.20;63.50
62575;DHT22;76945;45.630;11.704;2024-03-06T06:47:48;9.40;62.90
62575;DHT22;76945;45.630;11.704;2024-03-06T06:50:14;9.40;62.90
62575;DHT22;76945;45.630;11.704;2024-03-06T06:52:40;9.50;62.90
62575;DHT22;76945;45.630;11.704;2024-03-06T06:55:06;9.10;63.80
62575;DHT22;76945;45.630;11.704;2024-03-06T06:57:32;9.40;63.20
62575;DHT22;76945;45.630;11.704;2024-03-06T06:59:59;9.60;62.60
62575;DHT22;76945;45.630;11.704;2024-03-06T07:02:25;9.70;62.20
62575;DHT22;76945;45.630;11.704;2024-03-06T07:04:51;9.70;62.10
62575;DHT22;76945;45.630;11.704;2024-03-06T07:07:17;9.70;62.00
62575;DHT22;76945;45.630;11.704;2024-03-06T07:09:43;9.80;62.00
62575;DHT22;76945;45.630;11.704;2024-03-06T07:12:09;10.10;61.40
62575;DHT22;76945;45.630;11.704;2024-03-06T07:14:35;9.70;61.80
62575;DHT22;76945;45.630;11.704;2024-03-06T07:17:01;10.00;61.20
62575;DHT22;76945;45.630;11.704;2024-03-06T07:19:26;10.10;60.70
62575;DHT22;76945;45.630;11.704;2024-03-06T07:21:52;10.00;61.00
62575;DHT22;76945;45.630;11.704;2024-03-06T07:24:19;10.10;60.80
62575;DHT22;76945;45.630;11.704;2024-03-06T07:26:44;10.00;60.40
62575;DHT22;76945;45.630;11.704;2024-03-06T07:29:10;10.00;61.00
62575;DHT22;76945;45.630;11.704;2024-03-06T07:31:41;10.20;60.20
62575;DHT22;76945;45.630;11.704;2024-03-06T07:34:10;9.90;60.60
62575;DHT22;76945;45.630;11.704;2024-03-06T07:36:36;10.10;60.90
62575;DHT22;76945;45.630;11.704;2024-03-06T07:39:03;9.90;60.40
62575;DHT22;76945;45.630;11.704;2024-03-06T07:41:30;10.10;60.50
62575;DHT22;76945;45.630;11.704;2024-03-06T07:43:58;10.30;60.10
62575;DHT22;76945;45.630;11.704;2024-03-06T07:46:24;10.40;59.20
62575;DHT22;76945;45.630;11.704;2024-03-06T07:48:50;10.20;59.50
62575;DHT22;76945;45.630;11.704;2024-03-06T07:51:17;10.50;59.40
62575;DHT22;76945;45.630;11.704;2024-03-06T07:53:42;10.20;60.00
62575;DHT22;76945;45.630;11.704;2024-03-06T07:56:10;10.20;59.70
62575;DHT22;76945;45.630;11.704;2024-03-06T07:58:37;10.20;59.40
62575;DHT22;76945;45.630;11.704;2024-03-06T08:01:03;10.30;59.50
62575;DHT22;76945;45.630;11.704;2024-03-06T08:03:28;10.70;58.40
62575;DHT22;76945;45.630;11.704;2024-03-06T08:05:54;10.60;58.30
62575;DHT22;76945;45.630;11.704;2024-03-06T08:08:20;10.90;57.90
62575;DHT22;76945;45.630;11.704;2024-03-06T08:10:46;10.90;57.30
62575;DHT22;76945;45.630;11.704;2024-03-06T08:13:12;10.90;57.20
62575;DHT22;76945;45.630;11.704;2024-03-06T08:15:37;11.10;56.30
62575;DHT22;76945;45.630;11.704;2024-03-06T08:18:03;11.20;56.70
62575;DHT22;76945;45.630;11.704;2024-03-06T08:20:29;11.20;56.20
62575;DHT22;76945;45.630;11.704;2024-03-06T08:22:56;11.20;56.90
62575;DHT22;76945;45.630;11.704;2024-03-06T08:25:21;11.50;56.30
62575;DHT22;76945;45.630;11.704;2024-03-06T08:27:47;11.40;55.70
62575;DHT22;76945;45.630;11.704;2024-03-06T08:30:13;11.30;55.40
62575;DHT22;76945;45.630;11.704;2024-03-06T08:32:39;10.60;56.10
62575;DHT22;76945;45.630;11.704;2024-03-06T08:35:11;10.70;56.20
62575;DHT22;76945;45.630;11.704;2024-03-06T08:37:38;10.80;56.70
62575;DHT22;76945;45.630;11.704;2024-03-06T08:40:05;10.90;55.60
62575;DHT22;76945;45.630;11.704;2024-03-06T08:42:33;10.90;55.90
62575;DHT22;76945;45.630;11.704;2024-03-06T08:44:59;11.00;55.00
62575;DHT22;76945;45.630;11.704;2024-03-06T08:47:24;11.20;55.20
62575;DHT22;76945;45.630;11.704;2024-03-06T08:49:50;10.90;54.60
62575;DHT22;76945;45.630;11.704;2024-03-06T08:52:16;11.30;54.90
62575;DHT22;76945;45.630;11.704;2024-03-06T08:54:41;11.10;54.80
62575;DHT22;76945;45.630;11.704;2024-03-06T08:57:07;11.50;54.90
62575;DHT22;76945;45.630;11.704;2024-03-06T08:59:34;12.00;53.90
62575;DHT22;76945;45.630;11.704;2024-03-06T09:02:15;12.40;53.50
62575;DHT22;76945;45.630;11.704;2024-03-06T09:04:44;12.60;52.50
62575;DHT22;76945;45.630;11.704;2024-03-06T09:07:10;12.70;52.20
62575;DHT22;76945;45.630;11.704;2024-03-06T09:09:37;12.80;51.70
62575;DHT22;76945;45.630;11.704;2024-03-06T09:12:07;13.00;51.80
62575;DHT22;76945;45.630;11.704;2024-03-06T09:14:36;13.10;50.80
62575;DHT22;76945;45.630;11.704;2024-03-06T09:17:02;13.10;50.40
62575;DHT22;76945;45.630;11.704;2024-03-06T09:19:28;12.90;51.70
62575;DHT22;76945;45.630;11.704;2024-03-06T09:21:54;12.70;50.60
62575;DHT22;76945;45.630;11.704;2024-03-06T09:24:23;12.90;51.10
62575;DHT22;76945;45.630;11.704;2024-03-06T09:26:50;13.10;50.20
62575;DHT22;76945;45.630;11.704;2024-03-06T09:29:16;13.20;50.40
62575;DHT22;76945;45.630;11.704;2024-03-06T09:31:42;13.20;50.30
62575;DHT22;76945;45.630;11.704;2024-03-06T09:34:08;12.60;49.80
62575;DHT22;76945;45.630;11.704;2024-03-06T09:36:38;12.40;50.80
62575;DHT22;76945;45.630;11.704;2024-03-06T09:39:04;12.20;51.60
62575;DHT22;76945;45.630;11.704;2024-03-06T09:41:33;12.40;50.50
62575;DHT22;76945;45.630;11.704;2024-03-06T09:44:00;12.40;49.80
62575;DHT22;76945;45.630;11.704;2024-03-06T09:46:26;12.60;50.90
62575;DHT22;76945;45.630;11.704;2024-03-06T09:48:52;13.10;49.90
62575;DHT22;76945;45.630;11.704;2024-03-06T09:51:19;12.40;49.40
62575;DHT22;76945;45.630;11.704;2024-03-06T09:53:46;13.00;49.50
62575;DHT22;76945;45.630;11.704;2024-03-06T09:56:17;12.70;49.10
62575;DHT22;76945;45.630;11.704;2024-03-06T09:58:44;13.10;48.60
62575;DHT22;76945;45.630;11.704;2024-03-06T10:01:12;13.10;49.20
62575;DHT22;76945;45.630;11.704;2024-03-06T10:03:39;13.30;48.90
62575;DHT22;76945;45.630;11.704;2024-03-06T10:06:08;12.70;50.00
62575;DHT22;76945;45.630;11.704;2024-03-06T10:08:34;12.90;48.90
62575;DHT22;76945;45.630;11.704;2024-03-06T10:11:00;12.70;49.30
62575;DHT22;76945;45.630;11.704;2024-03-06T10:13:26;13.00;49.80
62575;DHT22;76945;45.630;11.704;2024-03-06T10:16:00;13.00;50.00
62575;DHT22;76945;45.630;11.704;2024-03-06T10:18:27;13.10;50.00
62575;DHT22;76945;45.630;11.704;2024-03-06T10:20:54;12.70;49.00
62575;DHT22;76945;45.630;11.704;2024-03-06T10:23:20;12.30;49.90
62575;DHT22;76945;45.630;11.704;2024-03-06T10:25:49;12.60;48.90
62575;DHT22;76945;45.630;11.704;2024-03-06T10:28:22;12.80;49.50
62575;DHT22;76945;45.630;11.704;2024-03-06T10:30:51;12.40;50.10
62575;DHT22;76945;45.630;11.704;2024-03-06T10:33:18;12.30;50.60
62575;DHT22;76945;45.630;11.704;2024-03-06T10:35:46;12.50;50.70
62575;DHT22;76945;45.630;11.704;2024-03-06T10:38:12;12.40;50.70
62575;DHT22;76945;45.630;11.704;2024-03-06T10:40:39;12.60;50.80
62575;DHT22;76945;45.630;11.704;2024-03-06T10:43:06;12.70;50.20
62575;DHT22;76945;45.630;11.704;2024-03-06T10:48:08;12.70;49.80
62575;DHT22;76945;45.630;11.704;2024-03-06T10:50:39;13.20;49.90
62575;DHT22;76945;45.630;11.704;2024-03-06T10:53:11;13.70;48.60
62575;DHT22;76945;45.630;11.704;2024-03-06T10:55:37;13.70;48.80
62575;DHT22;76945;45.630;11.704;2024-03-06T10:58:07;13.60;48.40
62575;DHT22;76945;45.630;11.704;2024-03-06T11:00:38;13.40;47.60
62575;DHT22;76945;45.630;11.704;2024-03-06T11:03:08;12.60;49.80
62575;DHT22;76945;45.630;11.704;2024-03-06T11:05:35;13.00;49.50
62575;DHT22;76945;45.630;11.704;2024-03-06T11:08:03;13.50;48.80
62575;DHT22;76945;45.630;11.704;2024-03-06T11:10:36;14.10;47.50
62575;DHT22;76945;45.630;11.704;2024-03-06T11:13:03;14.20;46.90
62575;DHT22;76945;45.630;11.704;2024-03-06T11:15:30;14.80;46.80
62575;DHT22;76945;45.630;11.704;2024-03-06T11:17:56;15.00;45.20
62575;DHT22;76945;45.630;11.704;2024-03-06T11:20:22;15.10;44.70
62575;DHT22;76945;45.630;11.704;2024-03-06T11:28:18;16.80;40.90
62575;DHT22;76945;45.630;11.704;2024-03-06T11:30:57;18.00;39.50
62575;DHT22;76945;45.630;11.704;2024-03-06T11:36:22;20.20;36.70
62575;DHT22;76945;45.630;11.704;2024-03-06T11:38:51;20.80;34.50
62575;DHT22;76945;45.630;11.704;2024-03-06T11:41:22;21.00;34.90
62575;DHT22;76945;45.630;11.704;2024-03-06T11:43:51;20.50;35.10
62575;DHT22;76945;45.630;11.704;2024-03-06T11:46:19;21.10;34.30
62575;DHT22;76945;45.630;11.704;2024-03-06T11:48:55;21.10;34.60
62575;DHT22;76945;45.630;11.704;2024-03-06T11:51:22;22.40;33.10
62575;DHT22;76945;45.630;11.704;2024-03-06T11:53:51;22.80;32.20
62575;DHT22;76945;45.630;11.704;2024-03-06T11:56:19;22.00;32.40
62575;DHT22;76945;45.630;11.704;2024-03-06T11:58:46;21.60;32.90
62575;DHT22;76945;45.630;11.704;2024-03-06T12:01:12;21.90;31.60
62575;DHT22;76945;45.630;11.704;2024-03-06T12:03:39;20.80;33.20
62575;DHT22;76945;45.630;11.704;2024-03-06T12:06:05;21.70;31.90
62575;DHT22;76945;45.630;11.704;2024-03-06T12:08:33;21.10;32.40
62575;DHT22;76945;45.630;11.704;2024-03-06T12:11:00;20.60;31.90
62575;DHT22;76945;45.630;11.704;2024-03-06T12:13:25;19.20;34.50
62575;DHT22;76945;45.630;11.704;2024-03-06T12:15:51;18.50;35.40
62575;DHT22;76945;45.630;11.704;2024-03-06T12:18:20;17.10;37.50
62575;DHT22;76945;45.630;11.704;2024-03-06T12:20:45;17.40;37.60
62575;DHT22;76945;45.630;11.704;2024-03-06T12:23:23;17.70;35.90
62575;DHT22;76945;45.630;11.704;2024-03-06T12:26:12;18.40;34.80
62575;DHT22;76945;45.630;11.704;2024-03-06T12:28:38;19.30;34.50
62575;DHT22;76945;45.630;11.704;2024-03-06T12:31:05;19.80;33.70
62575;DHT22;76945;45.630;11.704;2024-03-06T12:33:32;19.20;34.60
62575;DHT22;76945;45.630;11.704;2024-03-06T12:36:08;20.50;33.20
62575;DHT22;76945;45.630;11.704;2024-03-06T12:38:37;22.10;30.80
62575;DHT22;76945;45.630;11.704;2024-03-06T12:41:03;21.00;31.70
62575;DHT22;76945;45.630;11.704;2024-03-06T12:43:29;20.30;32.30
62575;DHT22;76945;45.630;11.704;2024-03-06T12:45:55;20.10;33.60
62575;DHT22;76945;45.630;11.704;2024-03-06T12:48:23;20.20;32.90
62575;DHT22;76945;45.630;11.704;2024-03-06T12:50:48;19.40;33.70
62575;DHT22;76945;45.630;11.704;2024-03-06T12:53:21;19.80;33.80
62575;DHT22;76945;45.630;11.704;2024-03-06T12:55:46;19.10;34.00
62575;DHT22;76945;45.630;11.704;2024-03-06T12:58:15;18.00;35.40
62575;DHT22;76945;45.630;11.704;2024-03-06T13:00:41;17.50;36.10
62575;DHT22;76945;45.630;11.704;2024-03-06T13:03:06;17.10;37.20
62575;DHT22;76945;45.630;11.704;2024-03-06T13:05:32;17.10;37.90
62575;DHT22;76945;45.630;11.704;2024-03-06T13:07:59;17.10;37.60
62575;DHT22;76945;45.630;11.704;2024-03-06T13:10:28;18.40;36.40
62575;DHT22;76945;45.630;11.704;2024-03-06T13:12:54;18.40;35.60
62575;DHT22;76945;45.630;11.704;2024-03-06T13:15:20;17.40;36.00
62575;DHT22;76945;45.630;11.704;2024-03-06T13:17:45;16.90;37.80
62575;DHT22;76945;45.630;11.704;2024-03-06T13:20:11;18.10;36.90
62575;DHT22;76945;45.630;11.704;2024-03-06T13:22:37;18.30;36.40
62575;DHT22;76945;45.630;11.704;2024-03-06T13:25:03;17.10;37.80
62575;DHT22;76945;45.630;11.704;2024-03-06T13:27:30;17.00;38.00
62575;DHT22;76945;45.630;11.704;2024-03-06T13:29:56;17.40;38.20
62575;DHT22;76945;45.630;11.704;2024-03-06T13:32:22;18.30;35.10
62575;DHT22;76945;45.630;11.704;2024-03-06T13:34:48;17.70;36.50
62575;DHT22;76945;45.630;11.704;2024-03-06T13:37:14;18.10;36.10
62575;DHT22;76945;45.630;11.704;2024-03-06T13:39:40;17.30;37.20
62575;DHT22;76945;45.630;11.704;2024-03-06T13:42:06;18.10;36.30
62575;DHT22;76945;45.630;11.704;2024-03-06T13:44:34;19.30;35.00
62575;DHT22;76945;45.630;11.704;2024-03-06T13:47:00;21.10;32.50
62575;DHT22;76945;45.630;11.704;2024-03-06T13:49:41;21.30;32.50
62575;DHT22;76945;45.630;11.704;2024-03-06T13:52:08;20.30;32.20
62575;DHT22;76945;45.630;11.704;2024-03-06T13:54:37;19.20;33.90
62575;DHT22;76945;45.630;11.704;2024-03-06T13:57:03;19.30;34.30
62575;DHT22;76945;45.630;11.704;2024-03-06T13:59:30;18.80;35.00
62575;DHT22;76945;45.630;11.704;2024-03-06T14:01:57;19.50;34.00
62575;DHT22;76945;45.630;11.704;2024-03-06T14:04:22;22.10;31.10
62575;DHT22;76945;45.630;11.704;2024-03-06T14:06:49;22.30;30.60
62575;DHT22;76945;45.630;11.704;2024-03-06T14:09:15;24.90;27.90
62575;DHT22;76945;45.630;11.704;2024-03-06T14:11:40;25.90;26.50
62575;DHT22;76945;45.630;11.704;2024-03-06T14:14:06;27.00;25.50
62575;DHT22;76945;45.630;11.704;2024-03-06T14:16:32;28.40;24.80
62575;DHT22;76945;45.630;11.704;2024-03-06T14:18:57;28.40;24.20
62575;DHT22;76945;45.630;11.704;2024-03-06T14:21:23;29.00;23.90
62575;DHT22;76945;45.630;11.704;2024-03-06T14:23:49;29.60;22.40
62575;DHT22;76945;45.630;11.704;2024-03-06T14:26:15;29.70;22.80
62575;DHT22;76945;45.630;11.704;2024-03-06T14:28:41;29.30;22.30
62575;DHT22;76945;45.630;11.704;2024-03-06T14:31:07;28.90;23.00
62575;DHT22;76945;45.630;11.704;2024-03-06T14:33:33;28.80;22.60
62575;DHT22;76945;45.630;11.704;2024-03-06T14:35:59;29.10;22.30
62575;DHT22;76945;45.630;11.704;2024-03-06T14:38:25;28.70;22.00
62575;DHT22;76945;45.630;11.704;2024-03-06T14:40:51;29.50;22.30
62575;DHT22;76945;45.630;11.704;2024-03-06T14:43:17;28.10;22.30
62575;DHT22;76945;45.630;11.704;2024-03-06T14:45:45;28.20;22.90
62575;DHT22;76945;45.630;11.704;2024-03-06T14:48:11;28.00;22.20
62575;DHT22;76945;45.630;11.704;2024-03-06T14:50:37;27.50;23.20
62575;DHT22;76945;45.630;11.704;2024-03-06T14:53:02;28.70;22.40
62575;DHT22;76945;45.630;11.704;2024-03-06T14:55:28;29.10;22.00
62575;DHT22;76945;45.630;11.704;2024-03-06T14:57:54;28.30;22.70
62575;DHT22;76945;45.630;11.704;2024-03-06T15:00:19;26.00;24.20
62575;DHT22;76945;45.630;11.704;2024-03-06T15:02:48;25.70;24.60
62575;DHT22;76945;45.630;11.704;2024-03-06T15:05:14;25.50;25.10
62575;DHT22;76945;45.630;11.704;2024-03-06T15:07:40;25.90;24.90
62575;DHT22;76945;45.630;11.704;2024-03-06T15:10:06;26.10;24.80
62575;DHT22;76945;45.630;11.704;2024-03-06T15:12:36;27.20;23.80
62575;DHT22;76945;45.630;11.704;2024-03-06T15:15:03;24.70;25.80
62575;DHT22;76945;45.630;11.704;2024-03-06T15:17:32;24.60;26.00
62575;DHT22;76945;45.630;11.704;2024-03-06T15:20:03;24.50;26.20
62575;DHT22;76945;45.630;11.704;2024-03-06T15:22:28;24.20;25.90
62575;DHT22;76945;45.630;11.704;2024-03-06T15:24:54;23.00;27.50
62575;DHT22;76945;45.630;11.704;2024-03-06T15:27:19;22.70;27.90
62575;DHT22;76945;45.630;11.704;2024-03-06T15:29:45;22.40;28.20